Presidente Olegario, Brazil
Current Conditions -  °F | °C
As of 12:00 PM on Friday 31 Oct 2014 (Local Time) from SBAX Reporting Station
Broken Clouds Broken Clouds  
Wind Chill: 79°   Ceiling: 2000
Heat Index: 79°   Visibility: 6mi
Dew Point: 52°   Wind: 8mph
Humidity: 39%   Direction: 80°E
Pressure: 30.12"   Gusts: NA
Location:  18.42°S, 46.42°W
Report Text: SBAX 311400Z 08007KT 9999 SCT012 BKN020 26/11 Q1020
Loading
Personal Weather Stations






























Interactive Weather Map New forecast layout! Learn more

10-Day Weather Forecast

Advertisements
Track Severe Weather on mobile